Fry, Arizona
Current Conditions -  °F | °C
As of 3:56 AM on Saturday 25 Oct 2014 (Local Time) from KFHU Reporting Station
Clear Clear  
Wind Chill: 62°   Ceiling: Unl
Heat Index: 62°   Visibility: 10mi
Dew Point: 44°   Wind: 9mph
Humidity: 52%   Direction: 240°WSW
Pressure: 30.22"   Gusts: NA
Location:  31.5289°N, 110.258°W
Report Text: KFHU 251056Z AUTO 24008KT 10SM CLR 17/07 A3022 RMK AO2 SLP175 T01670067 $
Loading
Personal Weather Stations






























Interactive Weather Map
Tropical Storm Tracking
New forecast layout! Learn more

10-Day Weather Forecast

Advertisements
Track Severe Weather on mobile